Time;durP1;ratioP1;P1;durP2;ratioP2;P2;SDS_P1;SDS_P2;PMS_P1;PMS_P2;Temp;Humidity;BMP_temperature;BMP_pressure;BME280_temperature;BME280_humidity;BME280_pressure;Samples;Min_cycle;Max_cycle;Signal;HPM_P1;HPM_P2
2022/12/06 00:01:09;;;;;;;8.17;6.83;;;;;;;;;;5074829;28;20486;-44
2022/12/06 00:03:35;;;;;;;7.73;6.93;;;;;;;;;;5075079;28;20444;-44
2022/12/06 00:06:02;;;;;;;7.57;6.87;;;;;;;;;;5074784;28;20450;-45
2022/12/06 00:08:28;;;;;;;7.60;6.80;;;;;;;;;;5074545;28;20503;-45
2022/12/06 00:10:54;;;;;;;6.87;6.27;;;;;;;;;;5074452;28;20473;-44
2022/12/06 00:13:21;;;;;;;7.17;6.33;;;;;;;;;;5074878;28;20437;-46
2022/12/06 00:15:48;;;;;;;7.57;6.77;;;;;;;;;;5074959;28;20437;-46
2022/12/06 00:18:14;;;;;;;10.43;7.53;;;;;;;;;;5074635;28;20830;-46
2022/12/06 00:20:40;;;;;;;8.17;6.47;;;;;;;;;;5074551;28;20513;-46
2022/12/06 00:23:06;;;;;;;7.30;6.60;;;;;;;;;;5074468;28;20472;-51
2022/12/06 00:25:35;;;;;;;7.30;6.60;;;;;;;;;;5074884;28;20863;-46
2022/12/06 00:28:01;;;;;;;7.07;6.30;;;;;;;;;;5074416;28;20876;-46
2022/12/06 00:30:28;;;;;;;6.10;5.53;;;;;;;;;;5074422;28;20841;-45
2022/12/06 00:32:54;;;;;;;7.27;6.57;;;;;;;;;;5074096;28;20434;-44
2022/12/06 00:35:20;;;;;;;7.20;6.50;;;;;;;;;;5074019;28;20473;-46
2022/12/06 00:37:46;;;;;;;6.63;6.03;;;;;;;;;;5073381;28;20467;-46
2022/12/06 00:40:12;;;;;;;7.13;6.43;;;;;;;;;;5074168;28;20450;-45
2022/12/06 00:42:38;;;;;;;6.60;6.00;;;;;;;;;;5074356;28;20442;-44
2022/12/06 00:45:05;;;;;;;6.77;6.07;;;;;;;;;;5073687;28;20440;-45
2022/12/06 00:47:32;;;;;;;6.53;5.63;;;;;;;;;;5074384;28;20445;-44
2022/12/06 00:49:58;;;;;;;6.33;5.73;;;;;;;;;;5073961;28;20882;-44
2022/12/06 00:52:24;;;;;;;6.57;5.97;;;;;;;;;;5073871;28;20474;-45
2022/12/06 00:54:50;;;;;;;6.03;5.53;;;;;;;;;;5073941;28;20495;-45
2022/12/06 00:57:16;;;;;;;6.50;5.90;;;;;;;;;;5073641;28;20528;-44
2022/12/06 00:59:42;;;;;;;6.10;5.50;;;;;;;;;;5073958;28;20517;-45
2022/12/06 01:02:08;;;;;;;6.40;5.80;;;;;;;;;;5073774;28;20457;-45
2022/12/06 01:04:37;;;;;;;6.23;5.63;;;;;;;;;;5073798;28;20434;-44
2022/12/06 01:07:03;;;;;;;6.07;5.47;;;;;;;;;;5073516;28;20430;-44
2022/12/06 01:09:29;;;;;;;6.47;5.87;;;;;;;;;;5073490;28;20511;-45
2022/12/06 01:11:56;;;;;;;6.47;5.87;;;;;;;;;;5073659;28;20488;-44
2022/12/06 01:14:22;;;;;;;5.37;4.90;;;;;;;;;;5073570;28;20434;-44
2022/12/06 01:16:48;;;;;;;6.27;5.73;;;;;;;;;;5073567;28;20429;-45
2022/12/06 01:19:14;;;;;;;6.43;5.80;;;;;;;;;;5073442;28;20789;-45
2022/12/06 01:21:41;;;;;;;6.07;5.57;;;;;;;;;;5073176;28;20202;-45
2022/12/06 01:24:07;;;;;;;6.60;6.00;;;;;;;;;;5073270;28;20203;-44
2022/12/06 01:26:35;;;;;;;5.63;5.13;;;;;;;;;;5073498;28;20438;-44
2022/12/06 01:29:01;;;;;;;6.03;5.43;;;;;;;;;;5073301;28;20438;-44
2022/12/06 01:31:28;;;;;;;5.97;5.47;;;;;;;;;;5073184;28;20478;-45
2022/12/06 01:33:54;;;;;;;6.43;5.70;;;;;;;;;;5072864;28;20444;-45
2022/12/06 01:36:21;;;;;;;5.80;5.20;;;;;;;;;;5072946;28;20433;-45
2022/12/06 01:38:52;;;;;;;6.47;5.87;;;;;;;;;;5073176;28;20434;-44
2022/12/06 01:41:18;;;;;;;7.20;6.50;;;;;;;;;;5073117;28;20817;-44
2022/12/06 01:43:44;;;;;;;7.77;6.97;;;;;;;;;;5073463;28;20434;-44
2022/12/06 01:46:15;;;;;;;7.60;6.90;;;;;;;;;;5072695;28;20514;-44
2022/12/06 01:48:41;;;;;;;7.97;7.17;;;;;;;;;;5072944;28;20429;-44
2022/12/06 01:51:08;;;;;;;8.37;7.57;;;;;;;;;;5072479;28;20482;-45
2022/12/06 01:53:35;;;;;;;7.23;6.53;;;;;;;;;;5073077;28;20499;-45
2022/12/06 01:56:03;;;;;;;8.10;7.17;;;;;;;;;;5072875;28;20441;-45
2022/12/06 01:58:31;;;;;;;8.53;7.37;;;;;;;;;;5070453;28;20434;-46
2022/12/06 02:00:57;;;;;;;9.30;8.03;;;;;;;;;;5070974;28;20430;-46
2022/12/06 02:03:25;;;;;;;8.33;7.17;;;;;;;;;;5072510;28;20487;-45
2022/12/06 02:05:51;;;;;;;9.70;8.33;;;;;;;;;;5072548;28;20438;-45
2022/12/06 02:08:18;;;;;;;8.03;7.23;;;;;;;;;;5072490;28;20469;-45
2022/12/06 02:10:44;;;;;;;7.73;6.93;;;;;;;;;;5073798;28;20485;-45
2022/12/06 02:13:11;;;;;;;8.20;7.40;;;;;;;;;;5072336;28;20426;-45
2022/12/06 02:15:40;;;;;;;8.43;7.63;;;;;;;;;;5072504;28;20809;-44
2022/12/06 02:18:10;;;;;;;8.20;7.40;;;;;;;;;;5072319;28;20453;-44
2022/12/06 02:20:41;;;;;;;8.63;7.50;;;;;;;;;;5072376;28;20438;-45
2022/12/06 02:23:24;;;;;;;7.97;7.17;;;;;;;;;;5072083;28;21039;-45
2022/12/06 02:26:03;;;;;;;8.90;8.00;;;;;;;;;;5062004;28;20515;-44
2022/12/06 02:28:43;;;;;;;9.47;7.43;;;;;;;;;;5072340;28;20434;-44
2022/12/06 02:31:13;;;;;;;8.53;7.43;;;;;;;;;;5071974;28;20466;-45
2022/12/06 02:33:41;;;;;;;9.40;7.40;;;;;;;;;;5072160;28;20444;-45
2022/12/06 02:36:09;;;;;;;10.03;8.17;;;;;;;;;;5071791;28;20430;-45
2022/12/06 02:38:37;;;;;;;10.57;8.37;;;;;;;;;;5072147;28;20438;-45
2022/12/06 02:41:07;;;;;;;11.90;8.57;;;;;;;;;;5071848;28;20442;-45
2022/12/06 02:43:36;;;;;;;12.50;9.43;;;;;;;;;;5072174;28;20429;-45
2022/12/06 02:46:03;;;;;;;10.57;9.00;;;;;;;;;;5071856;28;20884;-45
2022/12/06 02:48:31;;;;;;;10.93;9.20;;;;;;;;;;5071822;28;20943;-45
2022/12/06 02:50:59;;;;;;;12.27;9.50;;;;;;;;;;5071509;28;20486;-45
2022/12/06 02:53:27;;;;;;;13.00;9.63;;;;;;;;;;5071753;28;20533;-44
2022/12/06 02:55:53;;;;;;;10.83;9.30;;;;;;;;;;5071829;28;20514;-44
2022/12/06 02:58:19;;;;;;;12.53;10.13;;;;;;;;;;5071711;28;20444;-44
2022/12/06 03:00:46;;;;;;;12.57;9.37;;;;;;;;;;5071125;28;20468;-44
2022/12/06 03:03:33;;;;;;;12.40;9.90;;;;;;;;;;5071622;28;20804;-44
2022/12/06 03:06:12;;;;;;;13.53;9.63;;;;;;;;;;5066553;28;20942;-45
2022/12/06 03:08:41;;;;;;;10.57;8.73;;;;;;;;;;5072030;28;21024;-44
2022/12/06 03:11:07;;;;;;;12.40;10.23;;;;;;;;;;5072021;28;20649;-44
2022/12/06 03:13:39;;;;;;;11.40;9.70;;;;;;;;;;5071784;28;20440;-44
2022/12/06 03:16:11;;;;;;;12.37;9.57;;;;;;;;;;5071564;28;20537;-44
2022/12/06 03:18:41;;;;;;;10.43;9.17;;;;;;;;;;5071747;28;20491;-44
2022/12/06 03:21:10;;;;;;;10.63;8.93;;;;;;;;;;5071413;28;20453;-44
2022/12/06 03:23:38;;;;;;;11.13;9.47;;;;;;;;;;5071681;28;20430;-44
2022/12/06 03:26:05;;;;;;;11.23;9.27;;;;;;;;;;5071481;28;20438;-45
2022/12/06 03:28:31;;;;;;;12.37;10.40;;;;;;;;;;5071623;28;20441;-44
2022/12/06 03:30:58;;;;;;;11.00;8.93;;;;;;;;;;5071405;28;20497;-44
2022/12/06 03:33:25;;;;;;;10.57;8.80;;;;;;;;;;5071433;28;20428;-44
2022/12/06 03:35:52;;;;;;;10.90;9.00;;;;;;;;;;5071538;28;20846;-45
2022/12/06 03:38:22;;;;;;;13.40;9.17;;;;;;;;;;5071453;28;20955;-45
2022/12/06 03:40:50;;;;;;;9.90;8.70;;;;;;;;;;5071530;28;20448;-44
2022/12/06 03:43:16;;;;;;;10.60;8.87;;;;;;;;;;5071301;28;20476;-45
2022/12/06 03:45:46;;;;;;;11.73;9.43;;;;;;;;;;5071451;28;20442;-44
2022/12/06 03:48:13;;;;;;;13.53;10.47;;;;;;;;;;5071556;28;20434;-44
2022/12/06 03:50:41;;;;;;;12.33;9.70;;;;;;;;;;5071029;28;20490;-45
2022/12/06 03:53:07;;;;;;;11.57;9.33;;;;;;;;;;5071371;28;20425;-45
2022/12/06 03:55:35;;;;;;;12.67;9.77;;;;;;;;;;5071457;28;20445;-45
2022/12/06 03:58:01;;;;;;;11.43;9.10;;;;;;;;;;5071355;28;20572;-45
2022/12/06 04:00:27;;;;;;;10.60;9.50;;;;;;;;;;5071112;28;20956;-44
2022/12/06 04:02:53;;;;;;;10.93;9.57;;;;;;;;;;5071279;28;20442;-45
2022/12/06 04:05:19;;;;;;;11.40;9.00;;;;;;;;;;5070980;28;20434;-45
2022/12/06 04:07:45;;;;;;;12.33;9.97;;;;;;;;;;5071196;28;20293;-45
2022/12/06 04:10:11;;;;;;;13.33;10.40;;;;;;;;;;5071494;28;20469;-46
2022/12/06 04:15:23;;;;;;;12.33;9.80;;;;;;;;;;5074628;28;20432;-45
2022/12/06 04:23:19;;;;;;;15.13;11.00;;;;;;;;;;5074580;28;20417;-46
2022/12/06 04:25:45;;;;;;;15.30;11.10;;;;;;;;;;5074520;28;20445;-46
2022/12/06 04:39:12;;;;;;;15.07;11.20;;;;;;;;;;5074419;28;20509;-46
2022/12/06 04:44:25;;;;;;;17.13;11.67;;;;;;;;;;5074264;28;20621;-46
2022/12/06 04:46:51;;;;;;;16.13;11.23;;;;;;;;;;5074286;28;20444;-46
2022/12/06 04:49:17;;;;;;;15.67;11.77;;;;;;;;;;5074137;28;20521;-46
2022/12/06 04:51:43;;;;;;;16.70;11.03;;;;;;;;;;5073798;28;20546;-46
2022/12/06 04:54:09;;;;;;;18.00;12.03;;;;;;;;;;5073907;28;20430;-46
2022/12/06 04:56:35;;;;;;;16.40;12.30;;;;;;;;;;5074140;28;20200;-46
2022/12/06 04:59:01;;;;;;;14.73;11.47;;;;;;;;;;5073859;28;20677;-46
2022/12/06 05:01:28;;;;;;;14.43;10.90;;;;;;;;;;5073893;28;20445;-46
2022/12/06 05:03:54;;;;;;;16.30;12.07;;;;;;;;;;5073865;28;20491;-46
2022/12/06 05:06:20;;;;;;;17.03;11.83;;;;;;;;;;5073657;28;20453;-46
2022/12/06 05:08:46;;;;;;;17.93;12.37;;;;;;;;;;5073624;28;20566;-46
2022/12/06 05:11:12;;;;;;;14.53;11.63;;;;;;;;;;5073541;28;21177;-46
2022/12/06 05:13:38;;;;;;;19.17;11.80;;;;;;;;;;5073753;28;20200;-46
2022/12/06 05:16:05;;;;;;;19.03;11.73;;;;;;;;;;5073823;28;20441;-46
2022/12/06 05:18:33;;;;;;;20.30;13.33;;;;;;;;;;5073571;28;20601;-46
2022/12/06 05:21:04;;;;;;;18.67;12.87;;;;;;;;;;5073483;28;20456;-46
2022/12/06 05:23:30;;;;;;;18.07;12.03;;;;;;;;;;5072603;28;20433;-46
2022/12/06 05:25:59;;;;;;;18.37;12.20;;;;;;;;;;5073535;28;20437;-46
2022/12/06 05:28:25;;;;;;;21.13;14.17;;;;;;;;;;5073322;28;20430;-46
2022/12/06 05:30:51;;;;;;;19.73;13.17;;;;;;;;;;5073248;28;20430;-46
2022/12/06 05:33:17;;;;;;;18.87;12.73;;;;;;;;;;5073172;28;20465;-46
2022/12/06 05:35:45;;;;;;;20.43;14.00;;;;;;;;;;5073158;28;20844;-45
2022/12/06 05:38:11;;;;;;;17.43;12.87;;;;;;;;;;5073211;28;20452;-46
2022/12/06 05:40:38;;;;;;;15.97;12.20;;;;;;;;;;5073198;28;20520;-46
2022/12/06 05:43:04;;;;;;;19.27;13.20;;;;;;;;;;5072984;28;20192;-46
2022/12/06 05:45:30;;;;;;;17.20;12.60;;;;;;;;;;5073051;28;20450;-46
2022/12/06 05:47:56;;;;;;;19.33;13.07;;;;;;;;;;5072869;28;20436;-46
2022/12/06 05:50:22;;;;;;;15.57;11.77;;;;;;;;;;5072674;28;20232;-46
2022/12/06 05:52:52;;;;;;;18.60;12.70;;;;;;;;;;5072744;28;20991;-46
2022/12/06 05:55:18;;;;;;;16.90;11.67;;;;;;;;;;5072805;28;20456;-46
2022/12/06 05:57:44;;;;;;;17.40;12.53;;;;;;;;;;5072897;28;20438;-46
2022/12/06 06:00:11;;;;;;;18.23;12.67;;;;;;;;;;5072646;28;20207;-46
2022/12/06 06:02:37;;;;;;;19.60;12.40;;;;;;;;;;5072751;28;20214;-46
2022/12/06 06:05:03;;;;;;;16.40;12.20;;;;;;;;;;5072421;28;20992;-46
2022/12/06 06:07:29;;;;;;;17.57;12.43;;;;;;;;;;5072529;28;20230;-46
2022/12/06 06:09:56;;;;;;;18.57;12.83;;;;;;;;;;5072380;28;20456;-45
2022/12/06 06:12:22;;;;;;;21.67;12.83;;;;;;;;;;5072251;28;20477;-46
2022/12/06 06:14:48;;;;;;;19.97;12.53;;;;;;;;;;5072265;28;20517;-46
2022/12/06 06:17:14;;;;;;;16.27;11.73;;;;;;;;;;5070689;28;20514;-46
2022/12/06 06:19:40;;;;;;;18.43;12.27;;;;;;;;;;5072247;28;20520;-46
2022/12/06 06:22:06;;;;;;;18.50;12.33;;;;;;;;;;5072091;28;20530;-46
2022/12/06 06:24:35;;;;;;;17.83;13.20;;;;;;;;;;5072466;28;20517;-46
2022/12/06 06:27:02;;;;;;;20.90;12.73;;;;;;;;;;5072145;28;20226;-46
2022/12/06 06:29:28;;;;;;;19.47;12.73;;;;;;;;;;5071995;28;20924;-46
2022/12/06 06:31:54;;;;;;;21.07;13.67;;;;;;;;;;5071921;28;20474;-46
2022/12/06 06:34:20;;;;;;;19.47;12.87;;;;;;;;;;5070940;28;20522;-45
2022/12/06 06:36:47;;;;;;;19.30;13.63;;;;;;;;;;5071903;28;20438;-46
2022/12/06 06:39:13;;;;;;;20.00;13.77;;;;;;;;;;5071874;28;20662;-46
2022/12/06 06:41:39;;;;;;;22.17;13.50;;;;;;;;;;5071781;28;20799;-46
2022/12/06 06:44:06;;;;;;;21.87;14.57;;;;;;;;;;5071726;28;20429;-46
2022/12/06 06:46:32;;;;;;;21.07;14.20;;;;;;;;;;5071808;28;20206;-45
2022/12/06 06:48:58;;;;;;;21.10;14.67;;;;;;;;;;5071770;28;20533;-46
2022/12/06 06:51:24;;;;;;;23.13;14.30;;;;;;;;;;5071325;28;20239;-46
2022/12/06 06:53:50;;;;;;;20.53;14.53;;;;;;;;;;5071778;28;20209;-46
2022/12/06 06:56:16;;;;;;;19.20;13.27;;;;;;;;;;5071665;28;20667;-46
2022/12/06 06:58:42;;;;;;;18.70;12.70;;;;;;;;;;5071734;28;20197;-46
2022/12/06 07:01:15;;;;;;;20.53;13.47;;;;;;;;;;5071617;28;21169;-46
2022/12/06 07:03:41;;;;;;;20.07;13.27;;;;;;;;;;5071778;28;20434;-46
2022/12/06 07:06:09;;;;;;;23.43;13.67;;;;;;;;;;5071474;28;20779;-46
2022/12/06 07:08:35;;;;;;;19.53;13.60;;;;;;;;;;5071402;28;20235;-46
2022/12/06 07:11:01;;;;;;;18.23;13.10;;;;;;;;;;5071499;28;20483;-46
2022/12/06 07:13:28;;;;;;;18.37;13.27;;;;;;;;;;5071784;28;20487;-46
2022/12/06 07:15:54;;;;;;;20.17;13.30;;;;;;;;;;5071635;28;20440;-45
2022/12/06 07:18:21;;;;;;;18.00;12.63;;;;;;;;;;5072971;28;20440;-46
2022/12/06 07:20:47;;;;;;;18.53;12.80;;;;;;;;;;5071369;28;20979;-46
2022/12/06 07:23:14;;;;;;;19.37;13.40;;;;;;;;;;5071456;28;20445;-47
2022/12/06 07:25:40;;;;;;;17.63;12.97;;;;;;;;;;5071677;28;20438;-46
2022/12/06 07:28:06;;;;;;;13.70;9.83;;;;;;;;;;5071504;28;20434;-46
2022/12/06 07:30:33;;;;;;;14.00;10.50;;;;;;;;;;5071572;28;20446;-46
2022/12/06 07:32:59;;;;;;;11.73;9.57;;;;;;;;;;5071430;28;20473;-46
2022/12/06 07:35:26;;;;;;;12.33;9.80;;;;;;;;;;5071378;28;20418;-46
2022/12/06 07:37:52;;;;;;;12.73;10.10;;;;;;;;;;5071394;28;20450;-46
2022/12/06 07:40:18;;;;;;;11.10;9.20;;;;;;;;;;5071197;28;20781;-46
2022/12/06 07:45:29;;;;;;;13.33;10.27;;;;;;;;;;5072094;28;20460;-46
2022/12/06 07:47:57;;;;;;;12.87;10.40;;;;;;;;;;5075664;28;20432;-46
2022/12/06 07:50:23;;;;;;;18.03;12.83;;;;;;;;;;5073103;28;20492;-46
2022/12/06 07:52:51;;;;;;;13.83;10.70;;;;;;;;;;5074076;28;20469;-46
2022/12/06 07:55:18;;;;;;;13.83;11.00;;;;;;;;;;5074048;28;20242;-50
2022/12/06 07:57:44;;;;;;;14.00;10.57;;;;;;;;;;5074246;28;20445;-46
2022/12/06 08:00:11;;;;;;;15.10;11.47;;;;;;;;;;5073974;28;20430;-47
2022/12/06 08:02:37;;;;;;;17.60;11.57;;;;;;;;;;5074328;28;20430;-47
2022/12/06 08:05:04;;;;;;;15.17;11.77;;;;;;;;;;5073831;28;20507;-46
2022/12/06 08:07:31;;;;;;;17.07;13.13;;;;;;;;;;5074207;28;20248;-46
2022/12/06 08:09:58;;;;;;;20.70;12.93;;;;;;;;;;5073931;28;20450;-47
2022/12/06 08:12:24;;;;;;;18.37;12.47;;;;;;;;;;5073687;28;20556;-46
2022/12/06 08:14:50;;;;;;;17.10;12.07;;;;;;;;;;5073711;28;20847;-46
2022/12/06 08:17:20;;;;;;;14.73;12.03;;;;;;;;;;5073894;28;20195;-50
2022/12/06 08:19:46;;;;;;;16.00;12.23;;;;;;;;;;5073021;28;20429;-46
2022/12/06 08:22:12;;;;;;;14.63;11.60;;;;;;;;;;5073604;28;20426;-46
2022/12/06 08:24:38;;;;;;;14.57;11.10;;;;;;;;;;5073845;28;20198;-46
2022/12/06 08:27:06;;;;;;;15.83;11.67;;;;;;;;;;5073836;28;20433;-46
2022/12/06 08:29:33;;;;;;;16.03;10.90;;;;;;;;;;5073946;28;20638;-46
2022/12/06 08:31:59;;;;;;;15.13;10.90;;;;;;;;;;5073750;28;20561;-46
2022/12/06 08:34:25;;;;;;;16.43;11.03;;;;;;;;;;5073684;28;20501;-47
2022/12/06 08:36:51;;;;;;;13.53;10.50;;;;;;;;;;5073387;28;20666;-47
2022/12/06 08:39:17;;;;;;;15.23;11.37;;;;;;;;;;5073274;28;20878;-46
2022/12/06 08:41:56;;;;;;;14.63;10.77;;;;;;;;;;5073545;28;20528;-45
2022/12/06 08:44:24;;;;;;;13.87;10.67;;;;;;;;;;5073326;28;20274;-45
2022/12/06 08:46:51;;;;;;;13.20;10.47;;;;;;;;;;5073336;28;20528;-45
2022/12/06 08:49:17;;;;;;;13.17;10.43;;;;;;;;;;5073101;28;20425;-45
2022/12/06 08:51:44;;;;;;;13.30;10.07;;;;;;;;;;5072959;28;20477;-45
2022/12/06 08:54:12;;;;;;;13.10;10.30;;;;;;;;;;5073349;28;20449;-45
2022/12/06 08:56:38;;;;;;;14.00;9.97;;;;;;;;;;5072478;28;20487;-45
2022/12/06 08:59:04;;;;;;;13.67;10.17;;;;;;;;;;5072596;28;20936;-45
2022/12/06 09:01:32;;;;;;;11.50;8.90;;;;;;;;;;5073077;28;20199;-46
2022/12/06 09:03:58;;;;;;;12.27;9.53;;;;;;;;;;5073089;28;20445;-45
2022/12/06 09:06:24;;;;;;;13.33;9.77;;;;;;;;;;5073053;28;20432;-45
2022/12/06 09:08:50;;;;;;;15.07;10.67;;;;;;;;;;5072838;28;20477;-45
2022/12/06 09:11:17;;;;;;;14.57;11.17;;;;;;;;;;5072618;28;20508;-45
2022/12/06 09:13:43;;;;;;;13.30;10.70;;;;;;;;;;5072469;28;20502;-45
2022/12/06 09:16:10;;;;;;;15.13;11.07;;;;;;;;;;5072361;28;20435;-45
2022/12/06 09:18:37;;;;;;;13.37;11.07;;;;;;;;;;5073023;28;20923;-45
2022/12/06 09:21:04;;;;;;;15.30;11.17;;;;;;;;;;5072665;28;20488;-46
2022/12/06 09:23:30;;;;;;;17.40;11.47;;;;;;;;;;5072646;28;20433;-46
2022/12/06 09:25:56;;;;;;;12.83;10.67;;;;;;;;;;5072389;28;20438;-45
2022/12/06 09:28:22;;;;;;;12.53;10.67;;;;;;;;;;5072424;28;20200;-45
2022/12/06 09:30:48;;;;;;;13.57;10.97;;;;;;;;;;5072496;28;20203;-46
2022/12/06 09:33:14;;;;;;;12.70;10.50;;;;;;;;;;5072234;28;20482;-46
2022/12/06 09:35:42;;;;;;;12.13;10.73;;;;;;;;;;5072272;28;20253;-46
2022/12/06 09:38:08;;;;;;;13.87;11.17;;;;;;;;;;5072250;28;20291;-46
2022/12/06 09:40:35;;;;;;;13.70;10.00;;;;;;;;;;5072211;28;20920;-45
2022/12/06 09:43:09;;;;;;;11.43;10.13;;;;;;;;;;5072263;28;20785;-46
2022/12/06 09:45:43;;;;;;;12.07;10.33;;;;;;;;;;5072158;28;20445;-46
2022/12/06 09:48:30;;;;;;;11.37;9.07;;;;;;;;;;5072108;28;20430;-46
2022/12/06 09:51:05;;;;;;;11.17;9.53;;;;;;;;;;5066744;28;20571;-45
2022/12/06 09:53:35;;;;;;;11.63;9.10;;;;;;;;;;5071958;28;20429;-46
2022/12/06 09:56:05;;;;;;;10.33;8.57;;;;;;;;;;5071985;28;20446;-46
2022/12/06 09:58:38;;;;;;;12.10;9.23;;;;;;;;;;5071732;28;20937;-46
2022/12/06 10:01:07;;;;;;;11.90;9.37;;;;;;;;;;5071939;28;20464;-46
2022/12/06 10:03:38;;;;;;;11.83;10.47;;;;;;;;;;5071803;28;20441;-46
2022/12/06 10:06:08;;;;;;;13.50;11.10;;;;;;;;;;5071465;28;20889;-46
2022/12/06 10:08:48;;;;;;;12.17;10.87;;;;;;;;;;5069944;28;20474;-46
2022/12/06 10:11:18;;;;;;;11.70;9.80;;;;;;;;;;5071520;28;20449;-46
2022/12/06 10:13:51;;;;;;;13.50;11.33;;;;;;;;;;5071595;28;20468;-46
2022/12/06 10:16:21;;;;;;;13.03;11.50;;;;;;;;;;5071466;28;20452;-46
2022/12/06 10:18:54;;;;;;;13.87;11.47;;;;;;;;;;5072860;28;20492;-45
2022/12/06 10:21:25;;;;;;;13.80;11.53;;;;;;;;;;5071163;28;20499;-46
2022/12/06 10:23:56;;;;;;;13.17;11.37;;;;;;;;;;5071251;28;20835;-46
2022/12/06 10:26:27;;;;;;;13.50;11.83;;;;;;;;;;5071365;28;20442;-46
2022/12/06 10:28:56;;;;;;;17.63;12.57;;;;;;;;;;5071276;28;20430;-46
2022/12/06 10:31:23;;;;;;;13.40;11.57;;;;;;;;;;5064857;28;21017;-46
2022/12/06 10:33:54;;;;;;;13.20;11.77;;;;;;;;;;5070131;28;20495;-46
2022/12/06 10:36:26;;;;;;;12.83;11.43;;;;;;;;;;5066411;28;20949;-46
2022/12/06 10:38:54;;;;;;;14.20;12.27;;;;;;;;;;5047043;28;20438;-47
2022/12/06 10:41:25;;;;;;;14.77;11.70;;;;;;;;;;5051019;28;20482;-46
2022/12/06 10:43:54;;;;;;;12.57;11.27;;;;;;;;;;5050965;28;20425;-46
2022/12/06 10:49:13;;;;;;;12.73;10.53;;;;;;;;;;5050682;28;21039;-46
2022/12/06 10:51:42;;;;;;;13.97;11.00;;;;;;;;;;5050684;28;20486;-46
2022/12/06 10:54:16;;;;;;;13.40;9.97;;;;;;;;;;5050915;28;20965;-46
2022/12/06 10:56:43;;;;;;;11.40;10.23;;;;;;;;;;5050748;28;20444;-46
2022/12/06 10:59:14;;;;;;;11.93;10.27;;;;;;;;;;5050720;28;20934;-46
2022/12/06 11:01:41;;;;;;;11.83;10.63;;;;;;;;;;5050627;28;20522;-47
2022/12/06 11:04:10;;;;;;;10.03;9.03;;;;;;;;;;5050676;28;20451;-46
2022/12/06 11:06:37;;;;;;;11.30;10.10;;;;;;;;;;5050647;28;20963;-46
2022/12/06 11:09:12;;;;;;;11.80;10.60;;;;;;;;;;5050625;28;20454;-46
2022/12/06 11:11:39;;;;;;;11.77;10.40;;;;;;;;;;5050814;28;20490;-46
2022/12/06 11:14:06;;;;;;;12.27;10.10;;;;;;;;;;5050487;28;20949;-46
2022/12/06 11:16:35;;;;;;;11.40;10.20;;;;;;;;;;5050477;28;20462;-46
2022/12/06 11:19:10;;;;;;;11.87;9.63;;;;;;;;;;5050576;28;20440;-46
2022/12/06 11:21:39;;;;;;;10.17;9.17;;;;;;;;;;5056370;28;20446;-46
2022/12/06 11:24:09;;;;;;;11.00;9.90;;;;;;;;;;5057383;28;20473;-46
2022/12/06 11:26:38;;;;;;;11.30;10.10;;;;;;;;;;5056928;28;20446;-45
2022/12/06 11:29:05;;;;;;;10.67;9.57;;;;;;;;;;5057045;28;20427;-45
2022/12/06 11:31:32;;;;;;;11.20;10.07;;;;;;;;;;5057085;28;20273;-47
2022/12/06 11:33:58;;;;;;;10.37;9.30;;;;;;;;;;5057040;28;20287;-47
2022/12/06 11:36:25;;;;;;;10.60;9.53;;;;;;;;;;5056992;28;20431;-47
2022/12/06 11:38:51;;;;;;;11.40;10.27;;;;;;;;;;5057281;28;20439;-47
2022/12/06 11:41:21;;;;;;;10.63;9.53;;;;;;;;;;5057017;28;20448;-46
2022/12/06 11:43:48;;;;;;;11.43;10.07;;;;;;;;;;5056919;28;20464;-47
2022/12/06 11:46:17;;;;;;;11.63;10.40;;;;;;;;;;5057014;28;20438;-46
2022/12/06 11:48:43;;;;;;;12.97;10.90;;;;;;;;;;5056983;28;20943;-45
2022/12/06 11:51:15;;;;;;;11.27;10.17;;;;;;;;;;5056393;28;21054;-48
2022/12/06 11:53:44;;;;;;;10.40;9.30;;;;;;;;;;5064306;28;20442;-47
2022/12/06 11:56:11;;;;;;;11.00;9.83;;;;;;;;;;5075187;28;20446;-47
2022/12/06 11:58:41;;;;;;;10.67;9.43;;;;;;;;;;5075125;28;20657;-46
2022/12/06 12:01:15;;;;;;;10.00;8.83;;;;;;;;;;5076686;28;20971;-46
2022/12/06 12:03:42;;;;;;;9.83;8.83;;;;;;;;;;5076744;28;20449;-46
2022/12/06 12:06:19;;;;;;;10.50;9.40;;;;;;;;;;5077013;28;20528;-45
2022/12/06 12:08:53;;;;;;;10.17;9.17;;;;;;;;;;5076612;28;20460;-45
2022/12/06 12:11:20;;;;;;;9.57;8.57;;;;;;;;;;5071787;28;20437;-45
2022/12/06 12:13:51;;;;;;;9.97;8.53;;;;;;;;;;5076756;28;20447;-46
2022/12/06 12:16:18;;;;;;;9.40;8.47;;;;;;;;;;5076913;28;20187;-45
2022/12/06 12:18:50;;;;;;;8.53;7.73;;;;;;;;;;5076739;28;20998;-47
2022/12/06 12:21:16;;;;;;;9.30;8.30;;;;;;;;;;5076641;28;20454;-47
2022/12/06 12:23:44;;;;;;;8.20;7.33;;;;;;;;;;5073968;28;20205;-47
2022/12/06 12:26:11;;;;;;;8.73;7.90;;;;;;;;;;5075342;28;20449;-47
2022/12/06 12:28:38;;;;;;;8.73;7.57;;;;;;;;;;5076815;28;20481;-46
2022/12/06 12:31:09;;;;;;;7.90;7.10;;;;;;;;;;5076581;28;20811;-46
2022/12/06 12:33:35;;;;;;;11.33;7.60;;;;;;;;;;5072633;28;20227;-47
2022/12/06 12:36:15;;;;;;;8.50;7.70;;;;;;;;;;5073266;28;20256;-46
2022/12/06 12:38:42;;;;;;;9.90;7.73;;;;;;;;;;5072781;28;20374;-47
2022/12/06 12:41:21;;;;;;;9.57;8.20;;;;;;;;;;5073060;28;20438;-47
2022/12/06 12:43:54;;;;;;;9.67;7.70;;;;;;;;;;5073231;28;20210;-48
2022/12/06 12:46:22;;;;;;;8.23;7.43;;;;;;;;;;5072758;28;20916;-47
2022/12/06 12:48:49;;;;;;;9.30;7.80;;;;;;;;;;5073240;28;20218;-46
2022/12/06 12:51:36;;;;;;;8.47;7.63;;;;;;;;;;5072859;28;20758;-47
2022/12/06 12:54:03;;;;;;;8.07;7.27;;;;;;;;;;5067767;28;20538;-47
2022/12/06 12:56:30;;;;;;;8.43;7.33;;;;;;;;;;5072864;28;20250;-47
2022/12/06 12:58:57;;;;;;;7.77;7.07;;;;;;;;;;5073129;28;20294;-47
2022/12/06 13:01:36;;;;;;;8.87;7.47;;;;;;;;;;5072577;28;20676;-48
2022/12/06 13:04:03;;;;;;;7.43;6.73;;;;;;;;;;5072960;28;20203;-47
2022/12/06 13:06:31;;;;;;;7.67;6.73;;;;;;;;;;5072717;28;20214;-47
2022/12/06 13:09:00;;;;;;;7.53;6.80;;;;;;;;;;5072808;28;20243;-48
2022/12/06 13:11:26;;;;;;;8.03;7.23;;;;;;;;;;5072590;28;20553;-47
2022/12/06 13:13:53;;;;;;;8.10;7.20;;;;;;;;;;5072629;28;20260;-47
2022/12/06 13:16:23;;;;;;;8.20;7.40;;;;;;;;;;5072522;28;20485;-46
2022/12/06 13:18:52;;;;;;;7.40;6.70;;;;;;;;;;5072547;28;20199;-46
2022/12/06 13:21:20;;;;;;;7.43;6.73;;;;;;;;;;5072641;28;20426;-47
2022/12/06 13:23:47;;;;;;;7.70;6.87;;;;;;;;;;5072849;28;20458;-46
2022/12/06 13:26:16;;;;;;;8.37;6.63;;;;;;;;;;5072514;28;20208;-47
2022/12/06 13:28:44;;;;;;;9.60;7.20;;;;;;;;;;5072338;28;20658;-46
2022/12/06 13:31:13;;;;;;;7.60;6.40;;;;;;;;;;5072356;28;20433;-47
2022/12/06 13:33:42;;;;;;;7.50;6.40;;;;;;;;;;5071905;28;20823;-47
2022/12/06 13:36:11;;;;;;;6.60;5.87;;;;;;;;;;5072254;28;20468;-46
2022/12/06 13:38:38;;;;;;;7.57;6.73;;;;;;;;;;5072110;28;20839;-46
2022/12/06 13:41:04;;;;;;;6.70;6.00;;;;;;;;;;5071858;28;20955;-48
2022/12/06 13:43:55;;;;;;;6.67;6.07;;;;;;;;;;5071445;28;20434;-45
2022/12/06 13:46:28;;;;;;;6.23;5.63;;;;;;;;;;5071924;28;20257;-47
2022/12/06 13:48:55;;;;;;;6.23;5.63;;;;;;;;;;5071993;28;20441;-47
2022/12/06 13:51:42;;;;;;;6.40;5.80;;;;;;;;;;5071645;28;20223;-47
2022/12/06 13:54:35;;;;;;;8.70;5.97;;;;;;;;;;5072211;28;20441;-48
2022/12/06 13:57:18;;;;;;;7.53;5.80;;;;;;;;;;5071628;28;20192;-47
2022/12/06 13:59:44;;;;;;;6.07;5.37;;;;;;;;;;5071604;28;20571;-47
2022/12/06 14:02:25;;;;;;;6.20;5.60;;;;;;;;;;5071753;28;20438;-47
2022/12/06 14:04:51;;;;;;;6.47;5.80;;;;;;;;;;5058562;28;20445;-47
2022/12/06 14:07:30;;;;;;;8.80;6.50;;;;;;;;;;5071552;28;20425;-47
2022/12/06 14:09:56;;;;;;;6.03;5.40;;;;;;;;;;5072611;28;20273;-46
2022/12/06 14:12:23;;;;;;;8.17;5.83;;;;;;;;;;5071538;28;20223;-46
2022/12/06 14:14:55;;;;;;;7.30;5.47;;;;;;;;;;5071486;28;20195;-47
2022/12/06 14:17:22;;;;;;;5.43;4.90;;;;;;;;;;5071239;28;20453;-47
2022/12/06 14:19:49;;;;;;;7.67;5.07;;;;;;;;;;5071254;28;20550;-47
2022/12/06 14:22:17;;;;;;;5.77;5.17;;;;;;;;;;5071443;28;20437;-47
2022/12/06 14:24:54;;;;;;;5.60;4.87;;;;;;;;;;5071091;28;20673;-47
2022/12/06 14:27:21;;;;;;;6.23;5.30;;;;;;;;;;5071172;28;20940;-47
2022/12/06 14:29:58;;;;;;;5.23;4.50;;;;;;;;;;5071255;28;20731;-46
2022/12/06 14:32:30;;;;;;;4.67;4.27;;;;;;;;;;5071125;28;20480;-46
2022/12/06 14:35:00;;;;;;;5.30;4.70;;;;;;;;;;5070877;28;20803;-46
2022/12/06 14:37:26;;;;;;;4.80;4.40;;;;;;;;;;5071022;28;20203;-47
2022/12/06 14:39:54;;;;;;;5.53;4.83;;;;;;;;;;5071216;28;20616;-47
2022/12/06 14:45:09;;;;;;;6.93;5.20;;;;;;;;;;5070799;28;20421;-46
2022/12/06 14:47:35;;;;;;;5.67;5.00;;;;;;;;;;5070918;28;20517;-47
2022/12/06 14:53:01;;;;;;;5.53;5.00;;;;;;;;;;5070736;28;20477;-46
2022/12/06 14:55:30;;;;;;;7.23;6.30;;;;;;;;;;5070309;28;20988;-46
2022/12/06 14:57:57;;;;;;;7.10;5.83;;;;;;;;;;5070812;28;20438;-46
2022/12/06 15:00:25;;;;;;;8.60;5.73;;;;;;;;;;5070531;28;20966;-46
2022/12/06 15:02:58;;;;;;;5.83;5.10;;;;;;;;;;5070680;28;20487;-47
2022/12/06 15:05:34;;;;;;;7.27;5.93;;;;;;;;;;5071002;28;20430;-46
2022/12/06 15:08:15;;;;;;;6.47;4.80;;;;;;;;;;5070468;28;20442;-45